createdAt,value
2017-05-22T00:05:48.078Z,70.96
2017-05-22T00:25:48.542Z,72.98
2017-05-22T00:45:48.949Z,78.12
2017-05-22T01:05:49.465Z,78.89
2017-05-22T01:25:49.892Z,75.66
2017-05-22T01:55:50.529Z,53.91
2017-05-22T02:15:51.100Z,46.90
2017-05-22T02:35:51.583Z,99.87
2017-05-22T02:55:08.495Z,59.53
2017-05-22T03:15:07.803Z,99.63
2017-05-22T03:35:08.419Z,44.60
2017-05-22T03:55:08.860Z,20.02
2017-05-22T04:15:09.446Z,2.12
2017-05-22T04:35:09.864Z,0.00
2017-05-22T04:55:10.340Z,0.00
2017-05-22T05:15:10.913Z,0.00
2017-05-22T05:35:11.379Z,0.00
2017-05-22T05:55:11.861Z,0.00
2017-05-22T06:15:12.345Z,0.00
2017-05-22T06:35:12.885Z,0.00
2017-05-22T06:55:13.367Z,0.01
2017-05-22T07:15:13.789Z,0.01
2017-05-22T07:35:14.315Z,0.02
2017-05-22T07:55:14.801Z,0.07
2017-05-22T08:25:15.615Z,0.11
2017-05-22T08:45:16.048Z,0.06
2017-05-22T09:05:16.543Z,13.63
2017-05-22T09:25:16.994Z,22.43
2017-05-22T09:45:17.489Z,38.41
2017-05-22T10:05:17.858Z,13.68
2017-05-22T10:25:18.380Z,20.53
2017-05-22T10:45:18.859Z,14.81
2017-05-22T11:05:19.381Z,11.87
2017-05-22T11:25:19.816Z,26.20
2017-05-22T11:45:20.173Z,37.58
2017-05-22T12:05:20.649Z,21.03
2017-05-22T12:25:21.128Z,16.59
2017-05-22T12:45:21.715Z,32.89
2017-05-22T13:05:21.916Z,19.01
2017-05-22T13:25:22.479Z,35.18
2017-05-22T13:46:07.552Z,27.56
2017-05-22T14:05:23.480Z,0.07
2017-05-22T14:25:24.045Z,50.02
2017-05-22T15:00:24.973Z,0.02
2017-05-22T15:20:25.499Z,0.06
2017-05-22T15:40:25.910Z,8.29
2017-05-22T16:00:26.428Z,88.68
2017-05-22T16:20:26.979Z,87.49
2017-05-22T16:40:27.497Z,78.85
2017-05-22T17:00:27.983Z,67.45
2017-05-22T17:20:28.521Z,3.09
2017-05-22T17:40:28.911Z,0.10
2017-05-22T18:00:29.366Z,6.29
2017-05-22T18:20:29.909Z,77.53
2017-05-22T18:40:30.416Z,97.77
2017-05-22T19:00:30.974Z,73.36
2017-05-22T19:20:31.364Z,81.38
2017-05-22T19:40:31.779Z,59.34
2017-05-22T20:00:33.278Z,38.52
2017-05-22T20:21:17.215Z,85.14
2017-05-22T20:41:17.700Z,87.30
2017-05-22T21:01:18.351Z,23.89
2017-05-22T21:36:19.136Z,46.36
2017-05-22T21:56:19.581Z,57.19
2017-05-22T22:16:20.000Z,54.32
2017-05-22T22:36:20.409Z,64.86
2017-05-22T22:56:20.880Z,66.36
2017-05-22T23:16:21.280Z,60.17
2017-05-22T23:36:21.623Z,56.53
2017-05-22T23:56:22.157Z,58.89
